createdAt,value
2023-02-05T00:00:28.695Z,100423.13
2023-02-05T00:02:55.608Z,100441.19
2023-02-05T00:05:22.534Z,100424.31
2023-02-05T00:07:49.506Z,100448.06
2023-02-05T00:10:17.266Z,100415.59
2023-02-05T00:12:44.673Z,100442.94
2023-02-05T00:15:11.716Z,100449.13
2023-02-05T00:17:38.606Z,100442.28
2023-02-05T00:20:06.783Z,100429.84
2023-02-05T00:22:33.624Z,100430.78
2023-02-05T00:25:00.519Z,100417.66
2023-02-05T00:27:27.467Z,100414.34
2023-02-05T00:29:54.373Z,100449.53
2023-02-05T00:32:21.301Z,100435.41
2023-02-05T00:34:48.250Z,100445.78
2023-02-05T00:37:15.253Z,100436.66
2023-02-05T00:39:42.725Z,100439.59
2023-02-05T00:42:09.620Z,100441.63
2023-02-05T00:44:36.562Z,100447.34
2023-02-05T00:47:03.551Z,100441.97
2023-02-05T00:49:30.518Z,100461.97
2023-02-05T00:51:57.441Z,100465.31
2023-02-05T00:54:24.397Z,100466.88
2023-02-05T00:56:52.159Z,100461.09
2023-02-05T00:59:19.055Z,100464.16
2023-02-05T01:01:46.021Z,100469.88
2023-02-05T01:04:13.090Z,100468.25
2023-02-05T01:06:40.699Z,100473.09
2023-02-05T01:09:07.781Z,100455.88
2023-02-05T01:11:34.965Z,100452.03
2023-02-05T01:14:01.949Z,100464.59
2023-02-05T01:16:28.848Z,100475.09
2023-02-05T01:18:56.872Z,100463.75
2023-02-05T01:21:25.098Z,100439.50
2023-02-05T01:23:52.357Z,100484.91
2023-02-05T01:26:19.528Z,100488.81
2023-02-05T01:28:47.188Z,100470.97
2023-02-05T01:31:14.294Z,100489.81
2023-02-05T01:33:41.231Z,100490.44
2023-02-05T01:36:08.487Z,100479.25
2023-02-05T01:38:35.432Z,100500.69
2023-02-05T01:41:02.378Z,100497.53
2023-02-05T01:43:29.263Z,100505.03
2023-02-05T01:46:23.720Z,100493.31
2023-02-05T01:48:55.113Z,100475.72
2023-02-05T01:51:23.189Z,100510.25
2023-02-05T01:53:50.756Z,100497.34
2023-02-05T01:56:42.961Z,100510.00
2023-02-05T01:59:16.320Z,100507.28
2023-02-05T02:01:44.479Z,100513.41
2023-02-05T02:04:15.411Z,100512.34
2023-02-05T02:06:42.334Z,100507.56
2023-02-05T02:09:09.618Z,100479.34
2023-02-05T02:11:41.561Z,100513.53
2023-02-05T02:14:10.141Z,100513.34
2023-02-05T02:16:39.260Z,100521.34
2023-02-05T02:19:16.273Z,100515.94
2023-02-05T02:22:11.193Z,100501.75
2023-02-05T02:24:43.268Z,100529.59
2023-02-05T02:27:28.410Z,100521.22
2023-02-05T02:30:03.372Z,100551.50
2023-02-05T02:32:36.221Z,100549.84
2023-02-05T02:35:14.054Z,100540.38
2023-02-05T02:37:46.026Z,100542.13
2023-02-05T02:40:18.349Z,100514.88
2023-02-05T02:42:57.908Z,100556.31
2023-02-05T02:45:29.373Z,100566.66
2023-02-05T02:48:00.227Z,100559.91
2023-02-05T02:50:35.999Z,100546.22
2023-02-05T02:53:09.177Z,100573.78
2023-02-05T02:55:43.710Z,100569.13
2023-02-05T02:58:18.464Z,100560.41
2023-02-05T03:00:46.777Z,100582.75
2023-02-05T03:03:17.962Z,100586.63
2023-02-05T03:05:49.014Z,100559.72
2023-02-05T03:08:27.806Z,100596.13
2023-02-05T03:11:04.960Z,100593.31
2023-02-05T03:13:32.454Z,100601.88
2023-02-05T03:16:02.557Z,100578.88
2023-02-05T03:18:30.345Z,100597.53
2023-02-05T03:21:02.954Z,100596.78
2023-02-05T03:23:31.732Z,100589.66
2023-02-05T03:25:58.795Z,100589.22
2023-02-05T03:28:36.424Z,100580.50
2023-02-05T03:31:14.240Z,100598.41
2023-02-05T03:33:47.109Z,100587.84
2023-02-05T03:36:30.058Z,100598.63
2023-02-05T03:39:06.328Z,100582.03
2023-02-05T03:42:17.354Z,100622.09
2023-02-05T03:44:53.627Z,100618.13
2023-02-05T03:47:27.769Z,100593.75
2023-02-05T03:50:12.635Z,100609.63
2023-02-05T03:52:47.829Z,100627.72
2023-02-05T03:55:28.489Z,100641.88
2023-02-05T03:57:59.320Z,100645.97
2023-02-05T04:00:27.775Z,100638.06
2023-02-05T04:02:55.787Z,100663.25
2023-02-05T04:05:26.929Z,100643.69
2023-02-05T04:07:56.083Z,100639.25
2023-02-05T04:10:27.534Z,100667.44
2023-02-05T04:12:55.640Z,100671.38
2023-02-05T04:15:24.107Z,100677.78
2023-02-05T04:17:54.482Z,100677.94
2023-02-05T04:20:21.644Z,100667.19
2023-02-05T04:22:48.765Z,100684.72
2023-02-05T04:25:16.281Z,100658.88
2023-02-05T04:27:43.854Z,100676.03
2023-02-05T04:30:12.034Z,100687.06
2023-02-05T04:32:43.036Z,100694.31
2023-02-05T04:35:10.720Z,100703.22
2023-02-05T04:37:37.717Z,100694.94
2023-02-05T04:40:06.802Z,100704.13
2023-02-05T04:42:33.687Z,100714.22
2023-02-05T04:45:00.653Z,100746.47
2023-02-05T04:47:27.565Z,100728.38
2023-02-05T04:49:54.489Z,100756.09
2023-02-05T04:52:21.392Z,100756.91
2023-02-05T04:54:48.265Z,100762.09
2023-02-05T04:57:15.075Z,100746.91
2023-02-05T04:59:42.065Z,100762.41
2023-02-05T05:02:09.140Z,100730.56
2023-02-05T05:04:36.942Z,100737.22
2023-02-05T05:07:03.827Z,100735.59
2023-02-05T05:09:30.700Z,100755.00
2023-02-05T05:11:57.568Z,100735.88
2023-02-05T05:14:24.621Z,100751.34
2023-02-05T05:16:51.557Z,100739.53
2023-02-05T05:19:18.417Z,100765.38
2023-02-05T05:21:45.454Z,100770.44
2023-02-05T05:24:12.457Z,100771.25
2023-02-05T05:26:43.830Z,100748.22
2023-02-05T05:29:14.858Z,100748.66
2023-02-05T05:31:42.782Z,100762.63
2023-02-05T05:34:09.784Z,100779.09
2023-02-05T05:36:36.711Z,100776.97
2023-02-05T05:39:22.259Z,100778.00
2023-02-05T05:42:07.711Z,100802.31
2023-02-05T05:44:34.592Z,100791.56
2023-02-05T05:47:01.450Z,100787.56
2023-02-05T05:49:28.342Z,100805.28
2023-02-05T05:51:55.428Z,100778.53
2023-02-05T05:54:22.319Z,100794.69
2023-02-05T05:56:49.816Z,100792.25
2023-02-05T05:59:16.993Z,100806.78
2023-02-05T06:01:43.970Z,100807.94
2023-02-05T06:04:10.963Z,100817.72
2023-02-05T06:06:38.269Z,100845.25
2023-02-05T06:09:05.242Z,100854.69
2023-02-05T06:11:32.119Z,100850.00
2023-02-05T06:13:59.255Z,100862.06
2023-02-05T06:16:26.236Z,100879.03
2023-02-05T06:18:53.830Z,100892.75
2023-02-05T06:21:20.740Z,100901.75
2023-02-05T06:23:47.693Z,100898.94
2023-02-05T06:26:14.969Z,100922.22
2023-02-05T06:28:41.795Z,100928.69
2023-02-05T06:31:08.706Z,100940.41
2023-02-05T06:33:35.672Z,100950.88
2023-02-05T06:36:02.643Z,100939.34
2023-02-05T06:38:29.535Z,100951.91
2023-02-05T06:40:56.521Z,100959.97
2023-02-05T06:43:23.407Z,100938.88
2023-02-05T06:45:50.323Z,100957.81
2023-02-05T06:48:18.305Z,100966.09
2023-02-05T06:50:45.245Z,100960.34
2023-02-05T06:53:12.252Z,100972.81
2023-02-05T06:55:39.517Z,100961.06
2023-02-05T06:58:07.811Z,100970.66
2023-02-05T07:00:35.842Z,100988.94
2023-02-05T07:03:03.261Z,100995.31
2023-02-05T07:05:30.396Z,100975.22
2023-02-05T07:07:57.344Z,101002.94
2023-02-05T07:10:24.346Z,100992.78
2023-02-05T07:12:51.254Z,100982.69
2023-02-05T07:15:18.247Z,101015.81
2023-02-05T07:17:45.212Z,100991.03
2023-02-05T07:20:12.093Z,100995.66
2023-02-05T07:22:38.999Z,100986.38
2023-02-05T07:25:06.229Z,100969.00
2023-02-05T07:27:33.141Z,101011.00
2023-02-05T07:30:00.355Z,101020.75
2023-02-05T07:32:27.295Z,101006.34
2023-02-05T07:34:54.185Z,101013.81
2023-02-05T07:37:21.575Z,101013.16
2023-02-05T07:39:48.712Z,101015.97
2023-02-05T07:42:15.737Z,101030.72
2023-02-05T07:44:49.784Z,101016.25
2023-02-05T07:47:16.618Z,101036.69
2023-02-05T07:49:43.596Z,101024.72
2023-02-05T07:52:10.491Z,101030.78
2023-02-05T07:54:37.501Z,101031.53
2023-02-05T07:57:06.810Z,101018.56
2023-02-05T07:59:34.046Z,101028.31
2023-02-05T08:02:00.925Z,101052.63
2023-02-05T08:04:27.843Z,101028.13
2023-02-05T08:06:54.795Z,101047.56
2023-02-05T08:09:21.729Z,101033.69
2023-02-05T08:11:48.596Z,101039.28
2023-02-05T08:14:15.514Z,101048.38
2023-02-05T08:16:42.431Z,101046.41
2023-02-05T08:19:15.368Z,101044.19
2023-02-05T08:21:42.495Z,101054.38
2023-02-05T08:24:09.567Z,101053.34
2023-02-05T08:26:36.785Z,101072.56
2023-02-05T08:29:04.058Z,101074.63
2023-02-05T08:31:31.044Z,101087.63
2023-02-05T08:34:00.200Z,101087.81
2023-02-05T08:36:28.024Z,101104.28
2023-02-05T08:38:55.312Z,101113.31
2023-02-05T08:41:22.852Z,101111.03
2023-02-05T08:43:50.921Z,101110.25
2023-02-05T08:46:21.977Z,101128.66
2023-02-05T08:48:49.682Z,101129.31
2023-02-05T08:51:17.749Z,101133.81
2023-02-05T08:53:44.701Z,101158.53
2023-02-05T08:56:14.164Z,101158.72
2023-02-05T08:58:41.755Z,101178.34
2023-02-05T09:01:18.922Z,101185.84
2023-02-05T09:03:46.113Z,101193.72
2023-02-05T09:06:14.971Z,101193.16
2023-02-05T09:08:42.143Z,101173.41
2023-02-05T09:11:09.400Z,101188.88
2023-02-05T09:13:36.779Z,101189.88
2023-02-05T09:16:03.843Z,101207.94
2023-02-05T09:18:31.148Z,101204.75
2023-02-05T09:20:58.427Z,101185.28
2023-02-05T09:23:25.334Z,101198.91
2023-02-05T09:25:52.275Z,101194.31
2023-02-05T09:28:19.243Z,101206.91
2023-02-05T09:30:46.841Z,101200.25
2023-02-05T09:33:14.670Z,101187.03
2023-02-05T09:35:42.331Z,101182.81
2023-02-05T09:38:12.970Z,101205.09
2023-02-05T09:41:00.271Z,101196.03
2023-02-05T09:43:50.289Z,101210.94
2023-02-05T09:46:26.379Z,101224.50
2023-02-05T09:49:31.553Z,101223.97
2023-02-05T09:52:05.188Z,101224.63
2023-02-05T09:54:38.382Z,101230.31
2023-02-05T09:57:13.986Z,101225.19
2023-02-05T09:59:44.399Z,101203.75
2023-02-05T10:02:50.018Z,101218.13
2023-02-05T10:05:17.855Z,101215.41
2023-02-05T10:08:02.750Z,101217.47
2023-02-05T10:10:44.057Z,101228.53
2023-02-05T10:13:17.112Z,101216.16
2023-02-05T10:16:20.870Z,101223.66
2023-02-05T10:18:59.933Z,101245.28
2023-02-05T10:21:32.698Z,101234.78
2023-02-05T10:24:11.556Z,101241.28
2023-02-05T10:26:54.152Z,101218.72
2023-02-05T10:29:53.209Z,101242.41
2023-02-05T10:32:40.512Z,101220.44
2023-02-05T10:35:24.463Z,101215.78
2023-02-05T10:37:54.281Z,101222.78
2023-02-05T10:40:44.159Z,101237.66
2023-02-05T10:43:23.034Z,101223.88
2023-02-05T10:45:51.491Z,101222.03
2023-02-05T10:48:42.733Z,101220.06
2023-02-05T10:51:15.968Z,101204.19
2023-02-05T10:53:43.816Z,101215.56
2023-02-05T10:56:19.244Z,101210.63
2023-02-05T10:58:55.383Z,101207.06
2023-02-05T11:01:32.057Z,101230.41
2023-02-05T11:04:06.845Z,101215.78
2023-02-05T11:06:45.530Z,101217.66
2023-02-05T11:09:33.403Z,101219.00
2023-02-05T11:12:04.674Z,101236.31
2023-02-05T11:14:35.455Z,101249.25
2023-02-05T11:17:15.078Z,101227.53
2023-02-05T11:19:51.579Z,101234.88
2023-02-05T11:22:36.221Z,101230.00
2023-02-05T11:25:16.025Z,101233.63
2023-02-05T11:27:58.970Z,101234.16
2023-02-05T11:30:50.372Z,101228.06
2023-02-05T11:33:22.933Z,101235.09
2023-02-05T11:36:15.483Z,101238.66
2023-02-05T11:38:46.367Z,101240.16
2023-02-05T11:41:26.081Z,101231.69
2023-02-05T11:43:54.177Z,101236.97
2023-02-05T11:46:24.253Z,101249.94
2023-02-05T11:48:53.938Z,101235.47
2023-02-05T11:51:36.013Z,101249.91
2023-02-05T11:54:11.688Z,101239.47
2023-02-05T11:56:38.666Z,101253.59
2023-02-05T11:59:21.060Z,101258.16
2023-02-05T12:01:48.223Z,101259.03
2023-02-05T12:04:19.347Z,101255.69
2023-02-05T12:07:15.345Z,101253.81
2023-02-05T12:09:42.253Z,101263.81
2023-02-05T12:12:29.753Z,101258.16
2023-02-05T12:15:13.714Z,101276.06
2023-02-05T12:17:42.303Z,101272.88
2023-02-05T12:20:21.678Z,101264.59
2023-02-05T12:23:07.014Z,101287.81
2023-02-05T12:26:12.169Z,101277.91
2023-02-05T12:29:00.245Z,101286.06
2023-02-05T12:31:36.155Z,101302.56
2023-02-05T12:34:33.818Z,101285.22
2023-02-05T12:37:24.877Z,101293.78
2023-02-05T12:40:05.022Z,101288.34
2023-02-05T12:42:52.355Z,101293.25
2023-02-05T12:45:52.028Z,101318.78
2023-02-05T12:48:18.918Z,101317.34
2023-02-05T12:50:57.788Z,101314.97
2023-02-05T12:53:24.675Z,101310.22
2023-02-05T12:55:51.918Z,101320.13
2023-02-05T12:58:20.862Z,101330.75
2023-02-05T13:00:52.583Z,101337.94
2023-02-05T13:03:22.328Z,101313.88
2023-02-05T13:06:07.371Z,101313.91
2023-02-05T13:08:37.379Z,101320.66
2023-02-05T13:11:04.351Z,101335.16
2023-02-05T13:13:37.270Z,101317.38
2023-02-05T13:16:12.509Z,101319.28
2023-02-05T13:18:43.703Z,101321.69
2023-02-05T13:21:34.745Z,101337.66
2023-02-05T13:24:40.423Z,101349.34
2023-02-05T13:27:51.899Z,101342.69
2023-02-05T13:30:24.704Z,101343.59
2023-02-05T13:32:57.405Z,101357.06
2023-02-05T13:35:27.027Z,101346.66
2023-02-05T13:38:10.964Z,101337.94
2023-02-05T13:41:08.044Z,101332.84
2023-02-05T13:44:00.832Z,101308.00
2023-02-05T13:46:53.688Z,101333.72
2023-02-05T13:49:32.899Z,101356.50
2023-02-05T13:52:25.411Z,101357.41
2023-02-05T13:55:10.701Z,101360.28
2023-02-05T13:58:02.195Z,101341.69
2023-02-05T14:00:29.885Z,101326.25
2023-02-05T14:02:58.949Z,101331.06
2023-02-05T14:05:33.738Z,101335.63
2023-02-05T14:08:03.326Z,101349.75
2023-02-05T14:10:40.957Z,101347.88
2023-02-05T14:13:24.649Z,101356.03
2023-02-05T14:15:57.644Z,101358.91
2023-02-05T14:18:40.057Z,101353.19
2023-02-05T14:21:31.533Z,101362.34
2023-02-05T14:24:03.953Z,101343.19
2023-02-05T14:26:53.875Z,101362.44
2023-02-05T14:29:42.930Z,101355.56
2023-02-05T14:32:34.625Z,101368.91
2023-02-05T14:35:01.581Z,101373.06
2023-02-05T14:37:36.500Z,101375.22
2023-02-05T14:40:22.439Z,101369.09
2023-02-05T14:42:53.394Z,101380.88
2023-02-05T14:45:24.885Z,101375.22
2023-02-05T14:47:52.036Z,101386.13
2023-02-05T14:50:23.105Z,101379.91
2023-02-05T14:52:58.706Z,101384.59
2023-02-05T14:55:31.504Z,101366.91
2023-02-05T14:58:09.551Z,101382.34
2023-02-05T15:00:44.403Z,101399.47
2023-02-05T15:03:17.848Z,101372.16
2023-02-05T15:05:44.871Z,101393.97
2023-02-05T15:08:40.378Z,101379.41
2023-02-05T15:11:19.337Z,101405.06
2023-02-05T15:14:20.411Z,101406.78
2023-02-05T15:17:05.970Z,101393.91
2023-02-05T15:19:50.019Z,101413.81
2023-02-05T15:22:35.828Z,101415.69
2023-02-05T15:25:04.364Z,101406.22
2023-02-05T15:27:49.810Z,101411.78
2023-02-05T15:30:26.810Z,101409.88
2023-02-05T15:33:01.034Z,101427.34
2023-02-05T15:35:30.988Z,101418.81
2023-02-05T15:38:03.321Z,101429.28
2023-02-05T15:40:34.808Z,101422.72
2023-02-05T15:43:15.192Z,101437.50
2023-02-05T15:45:45.251Z,101436.78
2023-02-05T15:48:12.237Z,101434.88
2023-02-05T15:51:03.301Z,101435.50
2023-02-05T15:53:49.667Z,101424.13
2023-02-05T15:56:29.646Z,101433.63
2023-02-05T15:59:15.541Z,101445.03
2023-02-05T16:01:47.997Z,101445.53
2023-02-05T16:04:34.801Z,101441.47
2023-02-05T16:07:02.655Z,101439.16
2023-02-05T16:09:31.397Z,101430.09
2023-02-05T16:12:11.306Z,101424.72
2023-02-05T16:14:38.394Z,101421.94
2023-02-05T16:17:21.913Z,101423.31
2023-02-05T16:20:21.570Z,101428.91
2023-02-05T16:23:00.298Z,101436.31
2023-02-05T16:25:46.772Z,101427.56
2023-02-05T16:28:20.935Z,101425.44
2023-02-05T16:30:52.349Z,101432.53
2023-02-05T16:33:25.213Z,101437.31
2023-02-05T16:35:53.531Z,101435.28
2023-02-05T16:38:23.415Z,101440.44
2023-02-05T16:40:53.750Z,101448.47
2023-02-05T16:43:26.471Z,101440.97
2023-02-05T16:46:08.984Z,101447.66
2023-02-05T16:48:48.074Z,101430.50
2023-02-05T16:51:37.572Z,101432.25
2023-02-05T16:54:10.581Z,101433.31
2023-02-05T16:56:44.619Z,101450.31
2023-02-05T16:59:23.919Z,101452.53
2023-02-05T17:01:52.663Z,101462.47
2023-02-05T17:04:26.886Z,101468.63
2023-02-05T17:06:56.972Z,101460.00
2023-02-05T17:09:36.334Z,101451.88
2023-02-05T17:12:22.062Z,101474.59
2023-02-05T17:15:00.474Z,101487.47
2023-02-05T17:17:29.189Z,101480.94
2023-02-05T17:20:15.416Z,101486.25
2023-02-05T17:23:00.679Z,101476.25
2023-02-05T17:25:29.288Z,101494.13
2023-02-05T17:27:56.461Z,101485.63
2023-02-05T17:30:23.452Z,101488.69
2023-02-05T17:32:51.256Z,101488.38
2023-02-05T17:35:22.224Z,101486.19
2023-02-05T17:37:49.309Z,101487.13
2023-02-05T17:40:16.464Z,101486.34
2023-02-05T17:42:46.053Z,101492.00
2023-02-05T17:45:32.953Z,101498.81
2023-02-05T17:47:59.917Z,101492.78
2023-02-05T17:50:27.405Z,101496.78
2023-02-05T17:52:55.254Z,101508.66
2023-02-05T17:55:23.203Z,101497.06
2023-02-05T17:57:50.225Z,101514.56
2023-02-05T18:00:22.096Z,101497.25
2023-02-05T18:02:49.787Z,101519.69
2023-02-05T18:05:17.179Z,101501.50
2023-02-05T18:07:58.583Z,101503.28
2023-02-05T18:10:33.369Z,101510.63
2023-02-05T18:13:00.927Z,101505.72
2023-02-05T18:15:32.112Z,101503.63
2023-02-05T18:17:59.049Z,101514.47
2023-02-05T18:20:26.006Z,101511.03
2023-02-05T18:22:52.943Z,101518.97
2023-02-05T18:25:19.952Z,101508.06
2023-02-05T18:27:48.974Z,101519.63
2023-02-05T18:30:16.184Z,101512.31
2023-02-05T18:32:43.506Z,101516.09
2023-02-05T18:35:14.504Z,101518.88
2023-02-05T18:37:43.274Z,101510.03
2023-02-05T18:40:11.279Z,101512.84
2023-02-05T18:42:38.252Z,101518.66
2023-02-05T18:45:05.445Z,101510.69
2023-02-05T18:47:32.320Z,101507.31
2023-02-05T18:49:59.335Z,101499.34
2023-02-05T18:52:28.692Z,101489.19
2023-02-05T18:54:55.586Z,101484.03
2023-02-05T18:57:22.512Z,101493.31
2023-02-05T18:59:49.821Z,101477.38
2023-02-05T19:02:16.733Z,101482.63
2023-02-05T19:04:45.642Z,101485.19
2023-02-05T19:07:12.586Z,101491.16
2023-02-05T19:09:39.496Z,101482.34
2023-02-05T19:12:06.639Z,101469.84
2023-02-05T19:14:33.528Z,101473.22
2023-02-05T19:17:00.484Z,101473.41
2023-02-05T19:19:27.709Z,101470.06
2023-02-05T19:22:00.121Z,101462.84
2023-02-05T19:24:27.359Z,101474.03
2023-02-05T19:26:56.634Z,101470.53
2023-02-05T19:29:23.841Z,101472.81
2023-02-05T19:31:53.402Z,101477.38
2023-02-05T19:34:22.247Z,101480.94
2023-02-05T19:36:49.181Z,101480.53
2023-02-05T19:39:16.343Z,101473.41
2023-02-05T19:41:48.391Z,101467.25
2023-02-05T19:44:15.468Z,101460.97
2023-02-05T19:46:48.859Z,101473.59
2023-02-05T19:49:19.165Z,101464.00
2023-02-05T19:51:51.990Z,101476.59
2023-02-05T19:54:21.616Z,101456.19
2023-02-05T19:56:49.039Z,101478.34
2023-02-05T19:59:16.918Z,101478.56
2023-02-05T20:01:45.130Z,101477.94
2023-02-05T20:04:17.041Z,101470.81
2023-02-05T20:06:46.342Z,101464.06
2023-02-05T20:09:14.512Z,101460.06
2023-02-05T20:11:43.908Z,101473.81
2023-02-05T20:14:11.668Z,101465.53
2023-02-05T20:16:41.883Z,101473.16
2023-02-05T20:19:11.758Z,101465.19
2023-02-05T20:21:39.327Z,101470.16
2023-02-05T20:24:07.611Z,101468.25
2023-02-05T20:26:35.398Z,101478.25
2023-02-05T20:29:20.627Z,101475.69
2023-02-05T20:31:49.987Z,101469.56
2023-02-05T20:34:18.728Z,101472.59
2023-02-05T20:36:47.321Z,101463.41
2023-02-05T20:39:14.534Z,101471.56
2023-02-05T20:41:41.441Z,101454.16
2023-02-05T20:44:08.368Z,101456.50
2023-02-05T20:46:35.812Z,101462.78
2023-02-05T20:49:03.600Z,101458.13
2023-02-05T20:51:30.714Z,101459.16
2023-02-05T20:53:58.836Z,101466.56
2023-02-05T20:56:27.888Z,101445.25
2023-02-05T20:58:55.027Z,101454.41
2023-02-05T21:01:23.435Z,101462.56
2023-02-05T21:03:52.960Z,101454.38
2023-02-05T21:06:22.214Z,101454.44
2023-02-05T21:08:52.924Z,101465.63
2023-02-05T21:11:21.423Z,101469.03
2023-02-05T21:13:50.178Z,101462.09
2023-02-05T21:16:19.396Z,101449.47
2023-02-05T21:18:47.986Z,101442.19
2023-02-05T21:21:21.485Z,101445.03
2023-02-05T21:23:49.180Z,101455.63
2023-02-05T21:26:25.600Z,101446.44
2023-02-05T21:28:56.982Z,101452.66
2023-02-05T21:31:25.906Z,101461.56
2023-02-05T21:33:52.820Z,101467.94
2023-02-05T21:36:20.529Z,101465.38
2023-02-05T21:38:47.501Z,101461.72
2023-02-05T21:41:17.554Z,101460.75
2023-02-05T21:43:49.586Z,101460.38
2023-02-05T21:46:16.912Z,101452.94
2023-02-05T21:48:48.326Z,101460.41
2023-02-05T21:51:16.077Z,101451.88
2023-02-05T21:53:43.736Z,101446.38
2023-02-05T21:56:13.457Z,101431.03
2023-02-05T21:58:41.443Z,101425.06
2023-02-05T22:01:13.606Z,101425.09
2023-02-05T22:03:42.338Z,101424.88
2023-02-05T22:06:09.656Z,101417.84
2023-02-05T22:08:38.012Z,101415.09
2023-02-05T22:11:07.473Z,101432.19
2023-02-05T22:13:36.766Z,101422.31
2023-02-05T22:16:08.953Z,101431.50
2023-02-05T22:18:37.128Z,101420.81
2023-02-05T22:21:12.902Z,101427.06
2023-02-05T22:23:41.094Z,101411.78
2023-02-05T22:26:09.546Z,101412.81
2023-02-05T22:28:37.315Z,101418.34
2023-02-05T22:31:09.893Z,101395.72
2023-02-05T22:33:38.509Z,101402.34
2023-02-05T22:36:07.598Z,101402.72
2023-02-05T22:38:37.128Z,101409.47
2023-02-05T22:41:15.781Z,101401.63
2023-02-05T22:43:42.883Z,101398.34
2023-02-05T22:46:13.244Z,101388.66
2023-02-05T22:48:42.642Z,101397.91
2023-02-05T22:51:12.879Z,101391.31
2023-02-05T22:53:40.298Z,101392.31
2023-02-05T22:56:09.930Z,101379.09
2023-02-05T22:58:42.218Z,101388.06
2023-02-05T23:01:09.161Z,101371.72
2023-02-05T23:03:37.235Z,101374.72
2023-02-05T23:06:28.479Z,101373.03
2023-02-05T23:09:01.340Z,101378.19
2023-02-05T23:11:30.166Z,101378.28
2023-02-05T23:13:59.243Z,101379.88
2023-02-05T23:16:31.168Z,101369.28
2023-02-05T23:19:00.828Z,101373.75
2023-02-05T23:21:29.906Z,101363.63
2023-02-05T23:23:57.291Z,101358.47
2023-02-05T23:26:26.639Z,101353.75
2023-02-05T23:28:55.053Z,101361.38
2023-02-05T23:31:22.800Z,101356.50
2023-02-05T23:33:50.238Z,101352.78
2023-02-05T23:36:17.218Z,101367.16
2023-02-05T23:38:44.835Z,101350.56
2023-02-05T23:41:12.415Z,101356.59
2023-02-05T23:43:40.104Z,101349.75
2023-02-05T23:46:07.998Z,101357.19
2023-02-05T23:48:35.259Z,101334.97
2023-02-05T23:51:02.352Z,101365.75
2023-02-05T23:53:29.318Z,101368.59
2023-02-05T23:55:56.237Z,101373.03
2023-02-05T23:58:26.012Z,101359.78
